Time;durP1;ratioP1;P1;durP2;ratioP2;P2;SDS_P1;SDS_P2;PMS_P1;PMS_P2;Temp;Humidity;BMP_temperature;BMP_pressure;BME280_temperature;BME280_humidity;BME280_pressure;Samples;Min_cycle;Max_cycle;Signal;HPM_P1;HPM_P2
2022/12/06 00:02:11;;;;;;;88.93;16.77;;;4.70;99.90;;;;;;5049672;28;20048;-54
2022/12/06 00:04:37;;;;;;;47.85;13.43;;;4.60;99.90;;;;;;5049132;28;20040;-53
2022/12/06 00:07:03;;;;;;;33.38;11.90;;;4.60;99.90;;;;;;5049415;28;20041;-53
2022/12/06 00:09:31;;;;;;;40.05;12.90;;;4.60;99.90;;;;;;5049463;28;20124;-50
2022/12/06 00:11:57;;;;;;;35.83;12.27;;;4.60;99.90;;;;;;5049363;28;20041;-54
2022/12/06 00:14:23;;;;;;;30.30;9.68;;;4.60;99.90;;;;;;5049156;28;20037;-52
2022/12/06 00:16:50;;;;;;;26.77;8.20;;;4.60;99.90;;;;;;5048864;28;20045;-52
2022/12/06 00:19:19;;;;;;;19.48;6.00;;;4.60;99.90;;;;;;5049034;28;20048;-53
2022/12/06 00:21:46;;;;;;;25.00;6.63;;;4.60;99.90;;;;;;5049176;28;20044;-53
2022/12/06 00:24:22;;;;;;;24.70;6.18;;;4.90;99.90;;;;;;5048990;28;20604;-52
2022/12/06 00:26:49;;;;;;;29.45;5.93;;;4.60;99.90;;;;;;5049204;28;20071;-53
2022/12/06 00:29:22;;;;;;;19.77;4.85;;;4.60;99.90;;;;;;5049140;28;20045;-52
2022/12/06 00:31:49;;;;;;;14.18;4.53;;;4.60;99.90;;;;;;5049042;28;20471;-51
2022/12/06 00:34:15;;;;;;;21.83;4.65;;;4.60;99.90;;;;;;5049037;28;20040;-50
2022/12/06 00:36:42;;;;;;;22.73;5.78;;;4.60;99.90;;;;;;5048709;28;20041;-53
2022/12/06 00:39:11;;;;;;;36.42;5.95;;;4.60;99.90;;;;;;5049118;28;20041;-51
2022/12/06 00:41:37;;;;;;;30.85;5.45;;;4.60;99.90;;;;;;5048584;28;20082;-51
2022/12/06 00:44:03;;;;;;;28.60;5.28;;;4.50;99.90;;;;;;5048550;28;20037;-54
2022/12/06 00:46:30;;;;;;;18.70;4.47;;;4.40;99.90;;;;;;5048468;28;20048;-50
2022/12/06 00:48:58;;;;;;;27.58;5.03;;;4.40;99.90;;;;;;5048347;28;20147;-52
2022/12/06 00:51:25;;;;;;;25.55;5.35;;;4.30;99.90;;;;;;5048366;28;20123;-53
2022/12/06 00:53:51;;;;;;;22.75;4.07;;;4.30;99.90;;;;;;5048411;28;20396;-51
2022/12/06 00:56:18;;;;;;;27.33;5.55;;;4.30;99.90;;;;;;5048138;28;20075;-53
2022/12/06 00:58:44;;;;;;;33.67;5.38;;;4.30;99.90;;;;;;5013270;28;20049;-53
2022/12/06 01:01:20;;;;;;;37.15;5.28;;;4.30;99.90;;;;;;5047971;28;20041;-54
2022/12/06 01:03:50;;;;;;;29.02;5.47;;;4.20;99.90;;;;;;5047723;28;20049;-52
2022/12/06 01:06:16;;;;;;;25.00;6.18;;;4.20;99.90;;;;;;5047782;28;20041;-52
2022/12/06 01:08:43;;;;;;;24.60;4.32;;;4.20;99.90;;;;;;5047740;28;20154;-52
2022/12/06 01:11:09;;;;;;;19.15;5.05;;;4.30;99.90;;;;;;5047452;28;20559;-53
2022/12/06 01:13:36;;;;;;;21.85;4.53;;;4.30;99.90;;;;;;5047635;28;20738;-53
2022/12/06 01:16:13;;;;;;;17.33;4.40;;;4.30;99.90;;;;;;5047710;28;20096;-52
2022/12/06 01:18:40;;;;;;;26.50;4.40;;;4.30;99.90;;;;;;5047749;28;20068;-53
2022/12/06 01:21:20;;;;;;;30.33;5.00;;;4.30;99.90;;;;;;5047735;28;20053;-53
2022/12/06 01:23:46;;;;;;;19.17;4.53;;;4.30;99.90;;;;;;5047765;28;20123;-53
2022/12/06 01:26:18;;;;;;;21.17;4.95;;;4.30;99.90;;;;;;5047911;28;20044;-51
2022/12/06 01:28:44;;;;;;;19.05;4.32;;;4.30;99.90;;;;;;5047696;28;20524;-51
2022/12/06 01:31:10;;;;;;;24.02;5.00;;;4.30;99.90;;;;;;5047196;28;20063;-51
2022/12/06 01:33:36;;;;;;;17.00;4.43;;;4.30;99.90;;;;;;5047620;28;20379;-51
2022/12/06 01:36:02;;;;;;;21.25;4.72;;;4.30;99.90;;;;;;5047851;28;20047;-52
2022/12/06 01:38:28;;;;;;;24.80;6.88;;;4.40;99.90;;;;;;5047666;28;20171;-53
2022/12/06 01:40:54;;;;;;;25.13;6.10;;;4.30;99.90;;;;;;5047438;28;20565;-52
2022/12/06 01:43:53;;;;;;;18.50;5.32;;;4.50;99.90;;;;;;5047275;28;20049;-52
2022/12/06 01:46:30;;;;;;;26.25;6.20;;;4.30;99.90;;;;;;5024169;28;20106;-52
2022/12/06 01:49:18;;;;;;;18.25;5.53;;;4.30;99.90;;;;;;5047492;28;20048;-52
2022/12/06 01:51:53;;;;;;;29.33;6.47;;;4.30;99.90;;;;;;5047178;28;20045;-51
2022/12/06 01:54:20;;;;;;;22.20;5.70;;;4.30;99.90;;;;;;5047245;28;20040;-51
2022/12/06 01:56:49;;;;;;;19.50;5.60;;;4.30;99.90;;;;;;5046872;28;20051;-51
2022/12/06 01:59:15;;;;;;;24.65;5.63;;;4.30;99.90;;;;;;5047117;28;20072;-52
2022/12/06 02:01:41;;;;;;;16.55;5.57;;;4.30;99.90;;;;;;5046998;28;20040;-50
2022/12/06 02:04:08;;;;;;;14.40;5.15;;;4.30;99.90;;;;;;5047480;28;20044;-52
2022/12/06 02:06:34;;;;;;;19.52;5.38;;;4.30;99.90;;;;;;5047072;28;20045;-51
2022/12/06 02:09:03;;;;;;;14.77;5.05;;;4.30;99.90;;;;;;5047208;28;20048;-52
2022/12/06 02:11:29;;;;;;;18.40;4.88;;;4.10;99.90;;;;;;5047400;28;20049;-52
2022/12/06 02:13:55;;;;;;;21.10;4.65;;;4.30;99.90;;;;;;5047072;28;20485;-49
2022/12/06 02:16:31;;;;;;;24.90;5.03;;;4.30;99.90;;;;;;5047216;28;20037;-53
2022/12/06 02:19:16;;;;;;;19.95;5.00;;;4.30;99.90;;;;;;5047074;28;20044;-53
2022/12/06 02:21:48;;;;;;;14.27;3.25;;;4.30;99.90;;;;;;5046345;28;20179;-51
2022/12/06 02:24:40;;;;;;;10.30;3.37;;;4.30;99.90;;;;;;5047428;28;20048;-51
2022/12/06 02:27:30;;;;;;;15.93;3.72;;;4.20;99.90;;;;;;5047345;28;20271;-52
2022/12/06 02:30:17;;;;;;;20.15;3.85;;;4.20;99.90;;;;;;5046760;28;20128;-51
2022/12/06 02:33:00;;;;;;;12.90;2.70;;;4.20;99.90;;;;;;5046711;28;20396;-53
2022/12/06 02:35:39;;;;;;;13.68;3.30;;;4.20;99.90;;;;;;5046676;28;20047;-52
2022/12/06 02:38:19;;;;;;;11.85;2.92;;;4.20;99.90;;;;;;5046725;28;20040;-51
2022/12/06 02:40:50;;;;;;;7.97;2.35;;;4.20;99.90;;;;;;5046683;28;20041;-53
2022/12/06 02:43:24;;;;;;;16.77;2.92;;;4.20;99.90;;;;;;5046993;28;20033;-51
2022/12/06 02:45:53;;;;;;;10.70;2.13;;;4.20;99.90;;;;;;5046820;28;20091;-52
2022/12/06 02:48:21;;;;;;;11.57;2.92;;;5.00;99.90;;;;;;5046787;28;20045;-52
2022/12/06 02:50:55;;;;;;;9.48;2.10;;;4.20;99.90;;;;;;5028178;28;20558;-51
2022/12/06 02:53:24;;;;;;;11.30;2.63;;;4.10;99.90;;;;;;5046560;28;20041;-51
2022/12/06 02:55:50;;;;;;;9.35;2.10;;;4.20;99.90;;;;;;5046030;28;20053;-51
2022/12/06 02:58:16;;;;;;;9.80;2.60;;;4.10;99.90;;;;;;5046413;28;20051;-53
2022/12/06 03:00:45;;;;;;;12.95;2.75;;;4.10;99.90;;;;;;5046417;28;20037;-52
2022/12/06 03:03:48;;;;;;;14.90;2.70;;;4.10;99.90;;;;;;5046516;28;20045;-53
2022/12/06 03:06:36;;;;;;;9.00;2.88;;;4.10;99.90;;;;;;5046545;28;20056;-53
2022/12/06 03:09:04;;;;;;;6.22;2.00;;;4.00;99.90;;;;;;5046395;28;20075;-52
2022/12/06 03:11:53;;;;;;;10.15;2.67;;;4.00;99.90;;;;;;5046112;28;20087;-51
2022/12/06 03:14:24;;;;;;;9.05;2.35;;;4.00;99.90;;;;;;5046463;28;20574;-52
2022/12/06 03:17:29;;;;;;;8.75;2.72;;;4.00;99.90;;;;;;5045766;28;20041;-53
2022/12/06 03:20:03;;;;;;;17.17;3.38;;;3.90;99.90;;;;;;5020795;28;20100;-52
2022/12/06 03:22:35;;;;;;;5.35;1.60;;;3.90;99.90;;;;;;5046382;28;20632;-52
2022/12/06 03:25:03;;;;;;;7.20;2.13;;;3.90;99.90;;;;;;5046277;28;20119;-52
2022/12/06 03:27:30;;;;;;;11.32;2.97;;;3.90;99.90;;;;;;5046366;28;20084;-50
2022/12/06 03:30:00;;;;;;;11.20;2.75;;;3.90;99.90;;;;;;5045970;28;20122;-48
2022/12/06 03:32:31;;;;;;;11.02;2.55;;;3.90;99.90;;;;;;5046787;28;20080;-52
2022/12/06 03:35:01;;;;;;;5.45;2.10;;;3.90;99.90;;;;;;5049462;28;20545;-51
2022/12/06 03:37:31;;;;;;;14.13;3.75;;;3.90;99.90;;;;;;5049816;28;20052;-52
2022/12/06 03:40:08;;;;;;;8.02;3.25;;;3.90;99.90;;;;;;5049398;28;20505;-52
2022/12/06 03:42:35;;;;;;;12.32;3.38;;;3.90;99.90;;;;;;5049890;28;20119;-53
2022/12/06 03:45:01;;;;;;;5.60;2.20;;;3.90;99.90;;;;;;5049641;28;20045;-52
2022/12/06 03:47:39;;;;;;;7.72;2.30;;;3.90;99.90;;;;;;5049640;28;20056;-51
2022/12/06 03:50:12;;;;;;;10.70;2.60;;;3.90;99.90;;;;;;5049374;28;20055;-51
2022/12/06 03:52:38;;;;;;;11.68;3.33;;;3.90;99.90;;;;;;5049447;28;20483;-52
2022/12/06 03:55:04;;;;;;;5.80;2.40;;;4.00;99.90;;;;;;5049450;28;20099;-51
2022/12/06 03:57:30;;;;;;;11.25;2.15;;;3.90;99.90;;;;;;5049249;28;20851;-53
2022/12/06 03:59:56;;;;;;;3.65;1.50;;;3.90;99.90;;;;;;5049702;28;20053;-52
2022/12/06 04:02:21;;;;;;;4.85;1.83;;;4.00;99.90;;;;;;5049658;28;20056;-52
2022/12/06 04:04:48;;;;;;;11.82;2.47;;;3.90;99.90;;;;;;5031837;28;20041;-49
2022/12/06 04:07:14;;;;;;;9.63;2.05;;;3.90;99.90;;;;;;5050064;28;20041;-51
2022/12/06 04:09:55;;;;;;;4.47;1.45;;;3.90;99.90;;;;;;5049621;28;20487;-52
2022/12/06 04:15:14;;;;;;;10.45;3.05;;;3.90;99.90;;;;;;5033015;28;20486;-48
2022/12/06 04:20:26;;;;;;;10.05;3.05;;;3.90;99.90;;;;;;5049196;28;20064;-51
2022/12/06 04:23:02;;;;;;;10.27;2.65;;;3.90;99.90;;;;;;5048771;28;20902;-53
2022/12/06 04:25:32;;;;;;;13.75;3.47;;;3.90;99.90;;;;;;5049265;28;20044;-52
2022/12/06 04:38:56;;;;;;;14.82;3.72;;;3.80;99.90;;;;;;5048757;28;20048;-51
2022/12/06 04:44:07;;;;;;;19.90;3.20;;;3.60;99.90;;;;;;5047607;28;20056;-51
2022/12/06 04:46:33;;;;;;;10.32;2.60;;;3.50;99.90;;;;;;5048680;28;20044;-50
2022/12/06 04:48:58;;;;;;;13.07;2.45;;;3.30;99.90;;;;;;5048145;28;20586;-51
2022/12/06 04:51:24;;;;;;;12.65;2.70;;;3.30;99.90;;;;;;5048282;28;20129;-51
2022/12/06 04:53:50;;;;;;;15.88;2.90;;;3.00;99.90;;;;;;5048612;28;20049;-49
2022/12/06 04:56:16;;;;;;;21.65;3.53;;;3.20;99.90;;;;;;5048410;28;20146;-52
2022/12/06 04:58:43;;;;;;;12.18;2.83;;;3.20;99.90;;;;;;5048754;28;20076;-49
2022/12/06 05:01:08;;;;;;;16.77;3.45;;;3.20;99.90;;;;;;5048202;28;20052;-50
2022/12/06 05:03:34;;;;;;;19.25;3.22;;;3.20;99.90;;;;;;5048074;28;20044;-51
2022/12/06 05:06:00;;;;;;;16.90;3.10;;;3.20;99.90;;;;;;5025371;28;20060;-54
2022/12/06 05:08:26;;;;;;;17.10;3.30;;;3.50;99.90;;;;;;5045241;28;20041;-53
2022/12/06 05:10:52;;;;;;;9.75;3.10;;;3.30;99.90;;;;;;5047092;28;20106;-57
2022/12/06 05:13:18;;;;;;;15.80;2.95;;;3.20;99.90;;;;;;5047013;28;20122;-59
2022/12/06 05:16:00;;;;;;;19.42;3.22;;;3.40;99.90;;;;;;5047532;28;20095;-58
2022/12/06 05:18:26;;;;;;;9.20;2.08;;;3.20;99.90;;;;;;5049288;28;20033;-58
2022/12/06 05:21:26;;;;;;;10.45;2.20;;;3.20;99.90;;;;;;5048400;28;20075;-60
2022/12/06 05:23:53;;;;;;;12.48;2.97;;;3.20;99.90;;;;;;5046851;28;20056;-57
2022/12/06 05:26:21;;;;;;;16.05;3.17;;;3.20;99.90;;;;;;5047494;28;20511;-48
2022/12/06 05:28:47;;;;;;;17.02;3.15;;;3.20;99.90;;;;;;5029775;28;20754;-48
2022/12/06 05:31:14;;;;;;;11.50;2.72;;;3.30;99.90;;;;;;5047407;28;20429;-48
2022/12/06 05:33:40;;;;;;;10.98;2.83;;;3.30;99.90;;;;;;5047614;28;20063;-51
2022/12/06 05:36:07;;;;;;;8.35;2.15;;;3.30;99.90;;;;;;5047484;28;20044;-49
2022/12/06 05:38:33;;;;;;;18.98;2.85;;;3.30;99.90;;;;;;5047665;28;20091;-48
2022/12/06 05:40:58;;;;;;;11.43;2.50;;;3.30;99.90;;;;;;5047675;28;20068;-49
2022/12/06 05:43:24;;;;;;;13.10;2.45;;;3.40;99.90;;;;;;5047230;28;20049;-49
2022/12/06 05:45:53;;;;;;;11.60;3.05;;;3.40;99.90;;;;;;5047376;28;20052;-50
2022/12/06 05:48:18;;;;;;;6.90;2.08;;;3.40;99.90;;;;;;5046682;28;20496;-50
2022/12/06 05:50:48;;;;;;;12.70;3.10;;;3.40;99.90;;;;;;5046741;28;20044;-49
2022/12/06 05:53:15;;;;;;;13.80;2.47;;;3.40;99.90;;;;;;5047241;28;20064;-48
2022/12/06 05:55:41;;;;;;;8.10;2.50;;;3.40;99.90;;;;;;5047462;28;20095;-52
2022/12/06 05:58:08;;;;;;;17.30;3.25;;;3.30;99.90;;;;;;5046953;28;20092;-51
2022/12/06 06:00:34;;;;;;;14.93;2.70;;;3.30;99.90;;;;;;5046959;28;20471;-50
2022/12/06 06:03:00;;;;;;;11.82;2.42;;;3.30;99.90;;;;;;5047363;28;20048;-49
2022/12/06 06:05:25;;;;;;;6.78;1.88;;;3.30;99.90;;;;;;5046834;28;20137;-51
2022/12/06 06:07:51;;;;;;;12.25;2.20;;;3.30;99.90;;;;;;5046949;28;20051;-49
2022/12/06 06:10:17;;;;;;;10.45;2.97;;;3.30;99.90;;;;;;5047001;28;20170;-48
2022/12/06 06:12:43;;;;;;;13.90;2.95;;;3.40;99.90;;;;;;5046847;28;20048;-50
2022/12/06 06:15:10;;;;;;;19.83;3.70;;;3.30;99.90;;;;;;5047007;28;20040;-48
2022/12/06 06:17:36;;;;;;;11.07;2.35;;;3.30;99.90;;;;;;5046402;28;20566;-48
2022/12/06 06:20:04;;;;;;;17.08;3.38;;;3.20;99.90;;;;;;5046567;28;20467;-49
2022/12/06 06:22:32;;;;;;;11.27;2.17;;;3.20;99.90;;;;;;5046389;28;20056;-51
2022/12/06 06:24:59;;;;;;;10.35;2.42;;;3.20;99.90;;;;;;5046336;28;20048;-50
2022/12/06 06:27:25;;;;;;;11.23;2.88;;;3.10;99.90;;;;;;5046033;28;20479;-49
2022/12/06 06:29:50;;;;;;;15.70;4.32;;;3.10;99.90;;;;;;5046238;28;20044;-50
2022/12/06 06:32:16;;;;;;;9.45;3.03;;;3.10;99.90;;;;;;5046379;28;20045;-48
2022/12/06 06:34:42;;;;;;;13.55;3.22;;;3.10;99.90;;;;;;5046249;28;20420;-48
2022/12/06 06:37:08;;;;;;;13.05;2.95;;;3.10;99.90;;;;;;5046822;28;20052;-51
2022/12/06 06:39:33;;;;;;;14.60;3.70;;;3.10;99.90;;;;;;5046089;28;20037;-48
2022/12/06 06:41:59;;;;;;;17.55;3.60;;;3.10;99.90;;;;;;5046566;28;20068;-48
2022/12/06 06:44:24;;;;;;;15.63;3.45;;;3.00;99.90;;;;;;5046457;28;20037;-48
2022/12/06 06:46:50;;;;;;;9.55;3.30;;;3.00;99.90;;;;;;5046082;28;20124;-50
2022/12/06 06:49:17;;;;;;;17.75;3.38;;;2.80;99.90;;;;;;5046280;28;20053;-48
2022/12/06 06:51:44;;;;;;;23.38;3.42;;;2.70;99.90;;;;;;5046570;28;20041;-48
2022/12/06 06:54:10;;;;;;;10.32;3.53;;;2.60;99.90;;;;;;5046500;28;20052;-51
2022/12/06 06:56:36;;;;;;;13.80;3.47;;;2.50;99.90;;;;;;5046487;28;20051;-51
2022/12/06 06:59:01;;;;;;;18.80;3.70;;;2.40;99.90;;;;;;5046349;28;20063;-50
2022/12/06 07:01:27;;;;;;;12.60;3.13;;;2.30;99.90;;;;;;5046526;28;20068;-49
2022/12/06 07:03:53;;;;;;;13.20;3.03;;;2.30;99.90;;;;;;5046485;28;20045;-49
2022/12/06 07:06:19;;;;;;;13.70;3.92;;;2.30;99.90;;;;;;5046237;28;20041;-51
2022/12/06 07:08:47;;;;;;;14.15;3.40;;;2.30;99.90;;;;;;5048602;28;20033;-48
2022/12/06 07:11:14;;;;;;;12.25;3.15;;;2.30;99.90;;;;;;5049872;28;20044;-51
2022/12/06 07:13:42;;;;;;;18.95;4.03;;;2.20;99.90;;;;;;5049667;28;20056;-48
2022/12/06 07:16:13;;;;;;;14.93;3.50;;;2.10;99.90;;;;;;5050316;28;20040;-50
2022/12/06 07:18:39;;;;;;;16.60;3.85;;;2.00;99.90;;;;;;5049529;28;20067;-49
2022/12/06 07:21:06;;;;;;;14.93;3.33;;;1.80;99.90;;;;;;5049727;28;20044;-48
2022/12/06 07:23:33;;;;;;;14.38;3.42;;;1.70;99.90;;;;;;5049640;28;20761;-49
2022/12/06 07:26:12;;;;;;;12.40;3.63;;;1.50;99.90;;;;;;5049827;28;20425;-49
2022/12/06 07:28:42;;;;;;;18.02;3.72;;;1.50;99.90;;;;;;5049790;28;20513;-48
2022/12/06 07:31:08;;;;;;;22.30;3.78;;;1.30;99.90;;;;;;5049360;28;20716;-49
2022/12/06 07:33:34;;;;;;;15.32;3.28;;;1.20;99.90;;;;;;5049532;28;20049;-48
2022/12/06 07:35:59;;;;;;;18.27;3.67;;;1.80;99.90;;;;;;5049299;28;20411;-50
2022/12/06 07:38:25;;;;;;;20.60;4.13;;;1.10;99.90;;;;;;5049357;28;20560;-48
2022/12/06 07:40:51;;;;;;;21.33;4.22;;;1.40;99.90;;;;;;5049459;28;20045;-49
2022/12/06 07:46:01;;;;;;;19.10;3.28;;;0.80;99.90;;;;;;5049746;28;20045;-49
2022/12/06 07:48:26;;;;;;;14.65;3.35;;;0.90;99.90;;;;;;5049640;28;20040;-51
2022/12/06 07:50:52;;;;;;;17.90;3.40;;;0.80;99.90;;;;;;5049825;28;20120;-50
2022/12/06 07:53:18;;;;;;;31.02;4.43;;;0.80;99.90;;;;;;5049543;28;20052;-48
2022/12/06 07:55:43;;;;;;;13.27;3.10;;;0.70;99.90;;;;;;5049124;28;20196;-49
2022/12/06 07:58:09;;;;;;;15.38;3.35;;;0.60;99.90;;;;;;5049631;28;20043;-48
2022/12/06 08:00:36;;;;;;;17.95;3.55;;;0.60;99.90;;;;;;5049601;28;20049;-47
2022/12/06 08:03:02;;;;;;;24.00;4.28;;;0.70;99.90;;;;;;5049046;28;20048;-52
2022/12/06 08:05:28;;;;;;;13.13;2.95;;;0.50;99.90;;;;;;5030460;28;20048;-49
2022/12/06 08:07:53;;;;;;;20.38;3.35;;;0.50;99.90;;;;;;5049251;28;20056;-49
2022/12/06 08:10:19;;;;;;;29.50;4.85;;;0.40;99.90;;;;;;5048689;28;20494;-50
2022/12/06 08:12:45;;;;;;;18.40;3.53;;;0.40;99.90;;;;;;5048542;28;20037;-49
2022/12/06 08:15:13;;;;;;;25.20;4.05;;;0.40;99.90;;;;;;5048596;28;20120;-49
2022/12/06 08:17:40;;;;;;;18.02;4.07;;;0.40;99.90;;;;;;5048691;28;20040;-48
2022/12/06 08:20:07;;;;;;;11.65;3.58;;;0.40;99.90;;;;;;5047464;28;20044;-49
2022/12/06 08:22:33;;;;;;;16.55;3.92;;;0.30;99.90;;;;;;5048427;28;20053;-51
2022/12/06 08:24:59;;;;;;;24.00;5.28;;;0.60;99.90;;;;;;5048736;28;20044;-49
2022/12/06 08:27:25;;;;;;;24.35;4.82;;;0.50;99.90;;;;;;5048482;28;20036;-52
2022/12/06 08:29:50;;;;;;;11.65;4.03;;;0.40;99.90;;;;;;5047881;28;20085;-50
2022/12/06 08:32:16;;;;;;;11.60;4.07;;;0.60;99.90;;;;;;5048564;28;20088;-47
2022/12/06 08:34:43;;;;;;;15.45;4.03;;;0.50;99.90;;;;;;5048632;28;20103;-48
2022/12/06 08:37:09;;;;;;;14.88;4.05;;;0.50;99.90;;;;;;5048918;28;20103;-48
2022/12/06 08:39:34;;;;;;;22.55;4.55;;;0.50;99.90;;;;;;5048149;28;20084;-48
2022/12/06 08:42:02;;;;;;;22.15;4.45;;;0.60;99.90;;;;;;5048620;28;20084;-49
2022/12/06 08:44:30;;;;;;;16.20;4.05;;;0.60;99.90;;;;;;5048208;28;20049;-48
2022/12/06 08:46:57;;;;;;;26.48;5.43;;;0.60;99.90;;;;;;5048128;28;20044;-48
2022/12/06 08:49:24;;;;;;;16.20;4.45;;;0.70;99.90;;;;;;5048616;28;20040;-48
2022/12/06 08:51:50;;;;;;;21.00;4.97;;;0.70;99.90;;;;;;5048014;28;20075;-50
2022/12/06 08:54:19;;;;;;;19.92;4.88;;;0.80;99.90;;;;;;5047937;28;20037;-49
2022/12/06 08:56:45;;;;;;;14.63;4.60;;;0.80;99.90;;;;;;5045644;28;20455;-51
2022/12/06 08:59:11;;;;;;;19.38;5.45;;;0.70;99.90;;;;;;5048365;28;20048;-49
2022/12/06 09:01:38;;;;;;;27.95;5.68;;;0.80;99.90;;;;;;5047453;28;20156;-51
2022/12/06 09:04:06;;;;;;;12.90;5.13;;;1.00;99.90;;;;;;5047873;28;20135;-53
2022/12/06 09:06:32;;;;;;;21.80;6.13;;;1.10;99.90;;;;;;5048198;28;20041;-54
2022/12/06 09:08:57;;;;;;;21.33;6.63;;;1.20;99.90;;;;;;5047581;28;20051;-54
2022/12/06 09:11:24;;;;;;;18.55;5.32;;;1.40;99.90;;;;;;5047455;28;20047;-53
2022/12/06 09:13:50;;;;;;;17.90;5.38;;;1.70;99.90;;;;;;5047778;28;20103;-51
2022/12/06 09:16:19;;;;;;;20.40;5.20;;;1.80;99.90;;;;;;5047666;28;20488;-50
2022/12/06 09:18:46;;;;;;;24.15;5.90;;;1.90;99.90;;;;;;5047695;28;20069;-54
2022/12/06 09:21:20;;;;;;;16.27;5.15;;;1.90;99.90;;;;;;5031379;28;20048;-54
2022/12/06 09:23:46;;;;;;;18.02;5.85;;;2.00;99.90;;;;;;5046176;28;20109;-52
2022/12/06 09:26:13;;;;;;;20.70;5.93;;;2.20;99.90;;;;;;5045352;28;20123;-52
2022/12/06 09:28:40;;;;;;;20.42;6.15;;;2.40;99.90;;;;;;5046080;28;20045;-51
2022/12/06 09:31:07;;;;;;;18.40;5.13;;;2.70;99.90;;;;;;5044914;28;20411;-53
2022/12/06 09:33:33;;;;;;;13.23;4.65;;;3.00;99.90;;;;;;5046215;28;20049;-51
2022/12/06 09:36:04;;;;;;;15.40;4.90;;;3.20;99.90;;;;;;5044837;28;20043;-52
2022/12/06 09:38:32;;;;;;;16.40;5.28;;;3.30;99.90;;;;;;5046090;28;20148;-51
2022/12/06 09:41:16;;;;;;;15.73;5.57;;;3.10;99.90;;;;;;5027301;28;20049;-54
2022/12/06 09:43:45;;;;;;;17.83;5.40;;;3.30;99.90;;;;;;5045579;28;20051;-54
2022/12/06 09:46:20;;;;;;;13.82;4.60;;;3.30;99.90;;;;;;5045550;28;20044;-54
2022/12/06 09:49:12;;;;;;;14.43;5.18;;;3.20;99.90;;;;;;5045283;28;20494;-52
2022/12/06 09:51:58;;;;;;;13.93;5.05;;;3.20;99.90;;;;;;5041091;28;20190;-53
2022/12/06 09:54:53;;;;;;;20.73;6.00;;;3.20;99.90;;;;;;5045639;28;20113;-54
2022/12/06 09:57:44;;;;;;;11.32;4.15;;;3.20;99.90;;;;;;5045873;28;20051;-53
2022/12/06 10:00:14;;;;;;;16.70;5.15;;;3.20;99.90;;;;;;5027859;28;20161;-53
2022/12/06 10:02:49;;;;;;;12.95;4.55;;;3.30;99.90;;;;;;5045534;28;20055;-54
2022/12/06 10:05:20;;;;;;;11.77;4.22;;;3.30;99.90;;;;;;5045621;28;20148;-55
2022/12/06 10:08:08;;;;;;;11.35;4.70;;;3.40;99.90;;;;;;5045296;28;20418;-52
2022/12/06 10:10:34;;;;;;;15.02;4.50;;;3.50;99.90;;;;;;5045663;28;20060;-53
2022/12/06 10:13:11;;;;;;;11.13;4.50;;;3.50;99.90;;;;;;5045245;28;20041;-54
2022/12/06 10:15:39;;;;;;;12.45;4.20;;;3.60;99.90;;;;;;5045619;28;20068;-53
2022/12/06 10:18:30;;;;;;;12.55;4.22;;;3.60;99.90;;;;;;5044721;28;20728;-46
2022/12/06 10:21:17;;;;;;;11.63;4.82;;;3.60;99.90;;;;;;5019329;28;20055;-55
2022/12/06 10:23:59;;;;;;;14.43;4.80;;;3.50;99.90;;;;;;5045500;28;20426;-55
2022/12/06 10:26:46;;;;;;;11.57;5.32;;;3.60;99.90;;;;;;5045163;28;20037;-57
2022/12/06 10:29:43;;;;;;;15.93;5.07;;;3.70;99.90;;;;;;5045005;28;20040;-55
2022/12/06 10:32:23;;;;;;;14.27;5.60;;;3.80;99.90;;;;;;5039322;28;20053;-45
2022/12/06 10:35:22;;;;;;;11.60;5.40;;;3.80;99.90;;;;;;5044604;28;20777;-46
2022/12/06 10:38:16;;;;;;;13.73;4.93;;;3.70;99.90;;;;;;5036293;28;20052;-47
2022/12/06 10:40:48;;;;;;;11.82;4.25;;;3.70;99.90;;;;;;5045278;28;20041;-47
2022/12/06 10:43:21;;;;;;;8.95;4.25;;;4.60;99.90;;;;;;5047254;28;20037;-46
2022/12/06 10:48:34;;;;;;;11.05;3.40;;;3.90;99.90;;;;;;5049132;28;20746;-46
2022/12/06 10:51:09;;;;;;;7.50;3.40;;;4.00;99.90;;;;;;5048960;28;20052;-47
2022/12/06 10:53:42;;;;;;;12.25;3.45;;;4.00;99.90;;;;;;5049147;28;20032;-49
2022/12/06 10:56:24;;;;;;;10.98;3.35;;;4.00;99.90;;;;;;5048896;28;20390;-46
2022/12/06 10:58:57;;;;;;;10.77;4.03;;;4.20;99.90;;;;;;5049094;28;20045;-46
2022/12/06 11:01:27;;;;;;;14.80;3.90;;;4.20;99.90;;;;;;5049076;28;20048;-46
2022/12/06 11:04:10;;;;;;;9.68;3.72;;;4.40;99.90;;;;;;5030592;28;20542;-47
2022/12/06 11:06:49;;;;;;;10.07;3.40;;;4.50;99.90;;;;;;5048748;28;20045;-47
2022/12/06 11:09:39;;;;;;;8.68;3.55;;;4.60;99.90;;;;;;5048357;28;20053;-52
2022/12/06 11:12:28;;;;;;;12.18;3.80;;;4.70;99.90;;;;;;5030547;28;20048;-54
2022/12/06 11:15:19;;;;;;;8.10;3.45;;;4.90;99.90;;;;;;5047766;28;20363;-54
2022/12/06 11:17:51;;;;;;;8.77;3.45;;;5.00;99.90;;;;;;5048540;28;20037;-52
2022/12/06 11:20:24;;;;;;;8.47;3.40;;;5.00;99.90;;;;;;5028786;28;20053;-52
2022/12/06 11:23:08;;;;;;;7.47;2.67;;;4.90;99.90;;;;;;5048476;28;20716;-53
2022/12/06 11:26:04;;;;;;;5.47;2.95;;;4.90;99.90;;;;;;5047399;28;20608;-46
2022/12/06 11:28:40;;;;;;;8.25;3.22;;;4.90;99.90;;;;;;5047725;28;20336;-47
2022/12/06 11:31:19;;;;;;;10.07;3.47;;;5.00;99.90;;;;;;5047931;28;20544;-47
2022/12/06 11:33:45;;;;;;;10.02;4.03;;;5.20;99.90;;;;;;5048110;28;20095;-46
2022/12/06 11:36:11;;;;;;;6.63;3.10;;;5.20;99.90;;;;;;5047607;28;20403;-48
2022/12/06 11:38:40;;;;;;;7.25;2.85;;;5.20;99.90;;;;;;5046572;28;20080;-46
2022/12/06 11:41:09;;;;;;;8.93;2.80;;;5.30;99.90;;;;;;5047541;28;20522;-45
2022/12/06 11:43:35;;;;;;;8.80;3.50;;;5.30;99.90;;;;;;5048094;28;20123;-46
2022/12/06 11:46:04;;;;;;;7.97;3.40;;;5.30;99.90;;;;;;5047667;28;20125;-47
2022/12/06 11:48:33;;;;;;;7.38;3.03;;;5.40;99.90;;;;;;5047714;28;20057;-46
2022/12/06 11:50:59;;;;;;;8.15;2.45;;;3.90;99.90;;;;;;5047469;28;20165;-46
2022/12/06 11:53:36;;;;;;;5.95;2.47;;;5.50;99.90;;;;;;5047688;28;20487;-46
2022/12/06 11:56:26;;;;;;;7.53;3.08;;;5.50;99.90;;;;;;5047472;28;20037;-47
2022/12/06 11:59:20;;;;;;;6.03;2.53;;;7.10;99.90;;;;;;5047440;28;20045;-48
2022/12/06 12:01:49;;;;;;;5.68;2.40;;;5.50;99.90;;;;;;5047547;28;20048;-47
2022/12/06 12:04:36;;;;;;;7.32;2.67;;;5.50;99.90;;;;;;5047399;28;20077;-48
2022/12/06 12:07:11;;;;;;;5.40;2.40;;;6.00;99.90;;;;;;5046945;28;20059;-46
2022/12/06 12:09:48;;;;;;;7.28;2.50;;;5.50;99.90;;;;;;5047008;28;20433;-46
2022/12/06 12:12:22;;;;;;;6.05;2.45;;;5.50;99.90;;;;;;5047465;28;20045;-47
2022/12/06 12:14:57;;;;;;;7.25;2.55;;;5.50;99.90;;;;;;5047167;28;20555;-46
2022/12/06 12:17:29;;;;;;;4.10;2.00;;;5.50;99.90;;;;;;5047094;28;20495;-49
2022/12/06 12:20:04;;;;;;;4.65;2.42;;;5.40;99.90;;;;;;5047442;28;20490;-45
2022/12/06 12:22:39;;;;;;;3.65;1.95;;;5.50;99.90;;;;;;5027575;28;20130;-45
2022/12/06 12:25:29;;;;;;;4.70;2.08;;;5.50;99.90;;;;;;5047207;28;20732;-46
2022/12/06 12:27:57;;;;;;;8.25;2.25;;;5.40;99.90;;;;;;5045804;28;20052;-45
2022/12/06 12:30:39;;;;;;;3.30;1.52;;;5.30;99.90;;;;;;5046763;28;20080;-45
2022/12/06 12:33:04;;;;;;;6.57;1.88;;;5.20;99.90;;;;;;5046733;28;20103;-47
2022/12/06 12:35:41;;;;;;;6.63;1.98;;;5.10;99.90;;;;;;5047003;28;20049;-48
2022/12/06 12:38:09;;;;;;;5.03;2.35;;;5.10;99.90;;;;;;5062068;28;20037;-46
2022/12/06 12:40:51;;;;;;;5.72;1.55;;;5.00;99.90;;;;;;5046963;28;20052;-45
2022/12/06 12:43:26;;;;;;;4.45;2.05;;;5.00;99.90;;;;;;5046632;28;20427;-47
2022/12/06 12:46:10;;;;;;;5.63;2.00;;;4.90;99.90;;;;;;5046926;28;20056;-47
2022/12/06 12:48:38;;;;;;;5.90;1.98;;;4.90;99.90;;;;;;5046992;28;20048;-50
2022/12/06 12:51:18;;;;;;;6.47;1.70;;;4.80;99.90;;;;;;5048320;28;20040;-48
2022/12/06 12:53:45;;;;;;;4.50;1.35;;;4.80;99.90;;;;;;5048828;28;20637;-45
2022/12/06 12:56:21;;;;;;;4.75;1.70;;;5.20;99.90;;;;;;5048460;28;20087;-46
2022/12/06 12:58:53;;;;;;;5.25;1.70;;;4.90;99.90;;;;;;5048600;28;20116;-48
2022/12/06 13:01:39;;;;;;;6.18;2.22;;;6.60;99.90;;;;;;5048048;28;20120;-46
2022/12/06 13:04:25;;;;;;;;;;;4.90;99.90;;;;;;5049008;28;20125;-46
2022/12/06 13:07:17;;;;;;;5.68;1.75;;;5.10;99.90;;;;;;5039780;28;20030;-46
2022/12/06 13:09:52;;;;;;;7.63;2.30;;;5.30;99.90;;;;;;5047274;28;20053;-44
2022/12/06 13:12:27;;;;;;;6.07;2.55;;;5.50;99.90;;;;;;5047977;28;20055;-46
2022/12/06 13:15:01;;;;;;;5.63;2.40;;;5.60;99.90;;;;;;5047825;28;20045;-45
2022/12/06 13:17:31;;;;;;;4.05;1.70;;;5.70;99.90;;;;;;5047169;28;20354;-45
2022/12/06 13:19:56;;;;;;;4.47;1.83;;;5.80;99.90;;;;;;5047826;28;20394;-46
2022/12/06 13:22:28;;;;;;;5.93;1.95;;;5.80;99.90;;;;;;5047692;28;20041;-46
2022/12/06 13:25:06;;;;;;;6.82;2.03;;;5.70;99.90;;;;;;5047810;28;20040;-46
2022/12/06 13:27:38;;;;;;;5.00;2.30;;;5.70;99.90;;;;;;5047361;28;20055;-46
2022/12/06 13:30:12;;;;;;;4.07;1.80;;;5.60;99.90;;;;;;5047524;28;20041;-46
2022/12/06 13:32:47;;;;;;;7.68;1.85;;;5.50;99.90;;;;;;5046976;28;20547;-45
2022/12/06 13:35:21;;;;;;;4.32;1.50;;;5.50;99.90;;;;;;5047148;28;20390;-49
2022/12/06 13:38:00;;;;;;;3.67;1.58;;;5.60;99.90;;;;;;5047428;28;20087;-45